createdAt,value
2022-09-29T17:47:28.635Z,16.80
2022-09-29T17:49:56.807Z,11.20
2022-09-29T17:52:24.291Z,9.60
2022-09-29T17:54:51.698Z,10.13
2022-09-29T17:57:29.090Z,10.27
2022-09-29T17:59:58.395Z,17.30
2022-09-29T18:02:25.811Z,21.10
2022-09-29T18:04:54.695Z,71.57
2022-09-29T18:07:22.110Z,76.00
2022-09-29T18:09:49.478Z,45.73
2022-09-29T18:12:16.814Z,27.83
2022-09-29T18:14:44.223Z,17.00
2022-09-29T18:17:11.513Z,34.57
2022-09-29T18:19:40.387Z,16.20
2022-09-29T18:22:08.540Z,15.43
2022-09-29T18:24:35.935Z,60.00
2022-09-29T18:27:03.353Z,95.47
2022-09-29T18:29:34.307Z,76.83
2022-09-29T18:32:02.333Z,85.37
2022-09-29T18:34:31.428Z,93.47
2022-09-29T18:36:58.733Z,58.90
2022-09-29T18:39:26.025Z,67.60
2022-09-29T18:41:53.505Z,73.90
2022-09-29T18:44:24.808Z,50.90
2022-09-29T18:46:52.661Z,77.47
2022-09-29T18:49:20.248Z,179.70
2022-09-29T18:51:47.978Z,168.17
2022-09-29T18:54:18.129Z,91.77
2022-09-29T18:56:45.574Z,58.13
2022-09-29T18:59:13.083Z,36.83
2022-09-29T19:01:41.064Z,10.30
2022-09-29T19:04:10.585Z,24.77
2022-09-29T19:06:38.043Z,18.10
2022-09-29T19:09:05.521Z,19.53
2022-09-29T19:11:33.870Z,25.50
2022-09-29T19:14:01.356Z,12.43
2022-09-29T19:16:31.192Z,74.37
2022-09-29T19:18:59.278Z,48.97
2022-09-29T19:21:26.730Z,55.93
2022-09-29T19:23:54.206Z,39.40
2022-09-29T19:26:22.762Z,34.50
2022-09-29T19:28:50.619Z,28.07
2022-09-29T19:31:20.490Z,41.10
2022-09-29T19:33:48.395Z,27.67
2022-09-29T19:36:19.312Z,48.17
2022-09-29T19:38:47.174Z,96.20
2022-09-29T19:41:23.357Z,55.83
2022-09-29T19:43:51.643Z,29.30
2022-09-29T19:46:20.482Z,25.50
2022-09-29T19:48:48.328Z,36.53
2022-09-29T19:51:34.964Z,37.30
2022-09-29T19:54:21.853Z,32.23
2022-09-29T19:57:01.786Z,29.30
2022-09-29T19:59:34.498Z,29.03
2022-09-29T20:02:04.208Z,33.83
2022-09-29T20:04:34.860Z,36.53
2022-09-29T20:07:04.985Z,21.27
2022-09-29T20:09:33.744Z,24.07
2022-09-29T20:12:01.606Z,20.13
2022-09-29T20:14:29.289Z,18.43
2022-09-29T21:29:26.232Z,12.13
2022-09-29T21:31:53.593Z,19.73
2022-09-29T21:34:21.392Z,18.17
2022-09-29T21:36:49.450Z,16.53
2022-09-29T21:39:17.352Z,16.30
2022-09-29T21:44:24.779Z,14.23
2022-09-29T21:46:52.311Z,13.27
2022-09-29T21:49:20.785Z,15.10
2022-09-29T21:51:50.045Z,15.47
2022-09-29T21:54:20.659Z,14.20
2022-09-29T21:56:49.063Z,14.17
2022-09-29T21:59:19.809Z,14.23
2022-09-29T22:01:47.713Z,12.97
2022-09-29T22:04:16.286Z,16.57
2022-09-29T22:06:45.480Z,13.37
2022-09-29T22:09:19.167Z,12.90
2022-09-29T22:11:47.473Z,21.80
2022-09-29T22:14:16.284Z,12.60
2022-09-29T22:16:44.202Z,24.67
2022-09-29T22:19:23.025Z,13.73
2022-09-29T22:21:51.384Z,13.63
2022-09-29T22:24:18.860Z,12.80
2022-09-29T22:26:46.374Z,20.63
2022-09-29T22:29:13.726Z,14.00
2022-09-29T22:31:41.333Z,12.87
2022-09-29T22:34:10.007Z,16.83
2022-09-29T22:36:37.566Z,14.33
2022-09-29T22:39:06.748Z,16.27
2022-09-29T22:41:36.926Z,13.77
2022-09-29T22:44:04.439Z,15.23
2022-09-29T22:46:32.738Z,13.53
2022-09-29T22:49:00.183Z,14.23
2022-09-29T22:51:28.675Z,14.07
2022-09-29T22:53:55.960Z,14.40
2022-09-29T22:56:33.402Z,13.77
2022-09-29T22:59:04.812Z,14.17
2022-09-29T23:01:33.676Z,15.03
2022-09-29T23:04:01.486Z,15.00
2022-09-29T23:06:28.822Z,14.13
2022-09-29T23:08:56.102Z,14.83
2022-09-29T23:11:23.658Z,16.30
2022-09-29T23:13:51.387Z,13.87
2022-09-29T23:16:19.333Z,16.07
2022-09-29T23:18:47.492Z,15.50
2022-09-29T23:21:19.527Z,16.07
2022-09-29T23:23:48.398Z,16.37
2022-09-29T23:26:16.570Z,16.17
2022-09-29T23:28:43.911Z,16.43
2022-09-29T23:31:12.131Z,15.93
2022-09-29T23:33:39.814Z,15.17
2022-09-29T23:36:12.699Z,14.73
2022-09-29T23:39:00.050Z,16.93
2022-09-29T23:41:30.261Z,14.30
2022-09-29T23:44:08.387Z,14.30
2022-09-29T23:46:37.450Z,14.43
2022-09-29T23:49:09.565Z,16.70
2022-09-29T23:51:48.927Z,16.47
2022-09-29T23:54:18.459Z,14.27
2022-09-29T23:56:46.856Z,13.63
2022-09-29T23:59:15.167Z,13.97
